sensor_id;sensor_type;location;lat;lon;timestamp;temperature;humidity
10826;DHT22;5466;55.898;14.094;2024-02-23T00:00:16;4.20;99.90
10826;DHT22;5466;55.898;14.094;2024-02-23T00:02:18;4.20;99.90
10826;DHT22;5466;55.898;14.094;2024-02-23T00:04:19;4.20;99.90
10826;DHT22;5466;55.898;14.094;2024-02-23T00:06:19;4.20;99.90
10826;DHT22;5466;55.898;14.094;2024-02-23T00:08:20;4.20;99.90
10826;DHT22;5466;55.898;14.094;2024-02-23T00:10:21;4.10;99.90
10826;DHT22;5466;55.898;14.094;2024-02-23T00:12:21;4.10;99.90
10826;DHT22;5466;55.898;14.094;2024-02-23T00:14:22;4.10;99.90
10826;DHT22;5466;55.898;14.094;2024-02-23T00:16:23;4.10;99.90
10826;DHT22;5466;55.898;14.094;2024-02-23T00:18:23;4.20;99.90
10826;DHT22;5466;55.898;14.094;2024-02-23T00:20:24;4.20;99.90
10826;DHT22;5466;55.898;14.094;2024-02-23T00:22:25;4.20;99.90
10826;DHT22;5466;55.898;14.094;2024-02-23T00:24:26;4.20;99.90
10826;DHT22;5466;55.898;14.094;2024-02-23T00:26:27;4.30;99.90
10826;DHT22;5466;55.898;14.094;2024-02-23T00:28:29;4.30;99.90
10826;DHT22;5466;55.898;14.094;2024-02-23T00:30:30;4.30;99.90
10826;DHT22;5466;55.898;14.094;2024-02-23T00:32:30;4.40;99.90
10826;DHT22;5466;55.898;14.094;2024-02-23T00:34:31;4.50;99.90
10826;DHT22;5466;55.898;14.094;2024-02-23T00:36:32;4.50;99.90
10826;DHT22;5466;55.898;14.094;2024-02-23T00:38:33;4.50;99.90
10826;DHT22;5466;55.898;14.094;2024-02-23T00:40:33;4.60;99.90
10826;DHT22;5466;55.898;14.094;2024-02-23T00:42:34;4.60;99.90
10826;DHT22;5466;55.898;14.094;2024-02-23T00:44:35;4.70;99.90
10826;DHT22;5466;55.898;14.094;2024-02-23T00:46:35;4.60;99.90
10826;DHT22;5466;55.898;14.094;2024-02-23T00:48:36;4.70;99.90
10826;DHT22;5466;55.898;14.094;2024-02-23T00:50:37;4.70;99.90
10826;DHT22;5466;55.898;14.094;2024-02-23T00:52:37;4.70;99.90
10826;DHT22;5466;55.898;14.094;2024-02-23T00:54:38;4.80;99.90
10826;DHT22;5466;55.898;14.094;2024-02-23T00:56:39;4.80;99.90
10826;DHT22;5466;55.898;14.094;2024-02-23T00:58:40;4.90;99.90
10826;DHT22;5466;55.898;14.094;2024-02-23T01:00:40;4.90;99.90
10826;DHT22;5466;55.898;14.094;2024-02-23T01:02:42;4.90;99.90
10826;DHT22;5466;55.898;14.094;2024-02-23T01:04:42;4.80;99.90
10826;DHT22;5466;55.898;14.094;2024-02-23T01:06:43;4.80;99.90
10826;DHT22;5466;55.898;14.094;2024-02-23T01:08:44;4.90;99.90
10826;DHT22;5466;55.898;14.094;2024-02-23T01:10:44;4.90;99.90
10826;DHT22;5466;55.898;14.094;2024-02-23T01:12:45;4.90;99.90
10826;DHT22;5466;55.898;14.094;2024-02-23T01:14:46;4.90;99.90
10826;DHT22;5466;55.898;14.094;2024-02-23T01:16:48;4.90;99.90
10826;DHT22;5466;55.898;14.094;2024-02-23T01:18:49;5.00;99.90
10826;DHT22;5466;55.898;14.094;2024-02-23T01:20:50;5.00;99.90
10826;DHT22;5466;55.898;14.094;2024-02-23T01:22:50;5.10;99.90
10826;DHT22;5466;55.898;14.094;2024-02-23T01:24:51;5.10;99.90
10826;DHT22;5466;55.898;14.094;2024-02-23T01:26:52;5.20;99.90
10826;DHT22;5466;55.898;14.094;2024-02-23T01:28:52;5.20;99.90
10826;DHT22;5466;55.898;14.094;2024-02-23T01:30:53;5.20;99.90
10826;DHT22;5466;55.898;14.094;2024-02-23T01:32:54;5.20;99.90
10826;DHT22;5466;55.898;14.094;2024-02-23T01:34:55;5.20;99.90
10826;DHT22;5466;55.898;14.094;2024-02-23T01:36:55;5.20;99.90
10826;DHT22;5466;55.898;14.094;2024-02-23T01:38:56;5.30;99.90
10826;DHT22;5466;55.898;14.094;2024-02-23T01:40:57;5.40;99.90
10826;DHT22;5466;55.898;14.094;2024-02-23T01:43:04;5.40;99.90
10826;DHT22;5466;55.898;14.094;2024-02-23T01:45:05;5.50;99.90
10826;DHT22;5466;55.898;14.094;2024-02-23T01:47:07;5.50;99.90
10826;DHT22;5466;55.898;14.094;2024-02-23T01:49:08;5.50;99.90
10826;DHT22;5466;55.898;14.094;2024-02-23T01:51:09;5.70;99.90
10826;DHT22;5466;55.898;14.094;2024-02-23T01:53:10;5.70;99.90
10826;DHT22;5466;55.898;14.094;2024-02-23T01:55:11;5.80;99.90
10826;DHT22;5466;55.898;14.094;2024-02-23T01:57:12;5.90;99.90
10826;DHT22;5466;55.898;14.094;2024-02-23T01:59:14;6.00;99.90
10826;DHT22;5466;55.898;14.094;2024-02-23T02:01:15;6.30;99.90
10826;DHT22;5466;55.898;14.094;2024-02-23T02:03:16;6.40;99.90
10826;DHT22;5466;55.898;14.094;2024-02-23T02:05:16;6.50;99.90
10826;DHT22;5466;55.898;14.094;2024-02-23T02:07:17;6.50;99.90
10826;DHT22;5466;55.898;14.094;2024-02-23T02:09:20;6.60;99.90
10826;DHT22;5466;55.898;14.094;2024-02-23T02:11:21;6.60;99.90
10826;DHT22;5466;55.898;14.094;2024-02-23T02:13:22;6.70;99.90
10826;DHT22;5466;55.898;14.094;2024-02-23T02:15:22;6.80;99.90
10826;DHT22;5466;55.898;14.094;2024-02-23T02:17:23;6.90;99.90
10826;DHT22;5466;55.898;14.094;2024-02-23T02:19:24;7.00;99.90
10826;DHT22;5466;55.898;14.094;2024-02-23T02:21:24;6.90;99.90
10826;DHT22;5466;55.898;14.094;2024-02-23T02:23:25;7.00;99.90
10826;DHT22;5466;55.898;14.094;2024-02-23T02:25:29;7.10;99.90
10826;DHT22;5466;55.898;14.094;2024-02-23T02:27:29;7.10;99.90
10826;DHT22;5466;55.898;14.094;2024-02-23T02:29:30;7.20;99.90
10826;DHT22;5466;55.898;14.094;2024-02-23T02:31:30;7.20;99.90
10826;DHT22;5466;55.898;14.094;2024-02-23T02:33:37;7.30;99.90
10826;DHT22;5466;55.898;14.094;2024-02-23T02:35:37;7.30;99.90
10826;DHT22;5466;55.898;14.094;2024-02-23T02:37:38;7.30;99.90
10826;DHT22;5466;55.898;14.094;2024-02-23T02:39:39;7.40;99.90
10826;DHT22;5466;55.898;14.094;2024-02-23T02:41:40;7.40;99.90
10826;DHT22;5466;55.898;14.094;2024-02-23T02:43:41;7.40;99.90
10826;DHT22;5466;55.898;14.094;2024-02-23T02:45:42;7.40;99.90
10826;DHT22;5466;55.898;14.094;2024-02-23T02:47:42;7.50;99.90
10826;DHT22;5466;55.898;14.094;2024-02-23T02:49:43;7.50;99.90
10826;DHT22;5466;55.898;14.094;2024-02-23T02:51:44;7.50;99.90
10826;DHT22;5466;55.898;14.094;2024-02-23T02:53:45;7.50;99.90
10826;DHT22;5466;55.898;14.094;2024-02-23T02:55:46;7.50;99.90
10826;DHT22;5466;55.898;14.094;2024-02-23T02:57:47;7.50;99.90
10826;DHT22;5466;55.898;14.094;2024-02-23T02:59:47;7.50;99.90
10826;DHT22;5466;55.898;14.094;2024-02-23T03:01:50;7.60;99.90
10826;DHT22;5466;55.898;14.094;2024-02-23T03:03:51;7.60;99.90
10826;DHT22;5466;55.898;14.094;2024-02-23T03:05:52;7.60;99.90
10826;DHT22;5466;55.898;14.094;2024-02-23T03:07:52;7.60;99.90
10826;DHT22;5466;55.898;14.094;2024-02-23T03:09:53;7.70;99.90
10826;DHT22;5466;55.898;14.094;2024-02-23T03:11:54;7.70;99.90
10826;DHT22;5466;55.898;14.094;2024-02-23T03:13:55;7.80;99.90
10826;DHT22;5466;55.898;14.094;2024-02-23T03:15:56;7.80;99.90
10826;DHT22;5466;55.898;14.094;2024-02-23T03:17:56;7.90;99.90
10826;DHT22;5466;55.898;14.094;2024-02-23T03:19:57;8.00;99.90
10826;DHT22;5466;55.898;14.094;2024-02-23T03:21:59;8.00;99.90
10826;DHT22;5466;55.898;14.094;2024-02-23T03:23:59;8.10;99.90
10826;DHT22;5466;55.898;14.094;2024-02-23T03:26:00;8.00;99.90
10826;DHT22;5466;55.898;14.094;2024-02-23T03:28:01;8.00;99.90
10826;DHT22;5466;55.898;14.094;2024-02-23T03:30:03;8.00;99.90
10826;DHT22;5466;55.898;14.094;2024-02-23T03:32:04;8.00;99.90
10826;DHT22;5466;55.898;14.094;2024-02-23T03:34:05;8.10;99.90
10826;DHT22;5466;55.898;14.094;2024-02-23T03:36:05;8.10;99.90
10826;DHT22;5466;55.898;14.094;2024-02-23T03:38:06;8.00;99.90
10826;DHT22;5466;55.898;14.094;2024-02-23T03:40:07;7.90;99.90
10826;DHT22;5466;55.898;14.094;2024-02-23T03:42:08;7.90;99.90
10826;DHT22;5466;55.898;14.094;2024-02-23T03:44:09;7.90;99.90
10826;DHT22;5466;55.898;14.094;2024-02-23T03:46:09;7.90;99.90
10826;DHT22;5466;55.898;14.094;2024-02-23T03:48:12;7.90;99.90
10826;DHT22;5466;55.898;14.094;2024-02-23T03:50:12;7.90;99.90
10826;DHT22;5466;55.898;14.094;2024-02-23T03:52:13;7.90;99.90
10826;DHT22;5466;55.898;14.094;2024-02-23T03:54:14;7.90;99.90
10826;DHT22;5466;55.898;14.094;2024-02-23T03:56:15;7.90;99.90
10826;DHT22;5466;55.898;14.094;2024-02-23T03:58:16;7.80;99.90
10826;DHT22;5466;55.898;14.094;2024-02-23T04:00:17;7.70;99.90
10826;DHT22;5466;55.898;14.094;2024-02-23T04:02:19;7.70;99.90
10826;DHT22;5466;55.898;14.094;2024-02-23T04:04:20;7.80;99.90
10826;DHT22;5466;55.898;14.094;2024-02-23T04:06:21;7.80;99.90
10826;DHT22;5466;55.898;14.094;2024-02-23T04:08:22;7.80;99.90
10826;DHT22;5466;55.898;14.094;2024-02-23T04:10:22;7.90;99.90
10826;DHT22;5466;55.898;14.094;2024-02-23T04:12:24;7.90;99.90
10826;DHT22;5466;55.898;14.094;2024-02-23T04:14:24;7.90;99.90
10826;DHT22;5466;55.898;14.094;2024-02-23T04:16:25;7.90;99.90
10826;DHT22;5466;55.898;14.094;2024-02-23T04:18:26;7.90;99.90
10826;DHT22;5466;55.898;14.094;2024-02-23T04:20:26;7.80;99.90
10826;DHT22;5466;55.898;14.094;2024-02-23T04:22:27;7.80;99.90
10826;DHT22;5466;55.898;14.094;2024-02-23T04:24:28;7.70;99.90
10826;DHT22;5466;55.898;14.094;2024-02-23T04:26:28;7.60;99.90
10826;DHT22;5466;55.898;14.094;2024-02-23T04:28:29;7.50;99.90
10826;DHT22;5466;55.898;14.094;2024-02-23T04:30:31;7.50;99.90
10826;DHT22;5466;55.898;14.094;2024-02-23T04:32:32;7.40;99.90
10826;DHT22;5466;55.898;14.094;2024-02-23T04:34:32;7.40;99.90
10826;DHT22;5466;55.898;14.094;2024-02-23T04:36:33;7.30;99.90
10826;DHT22;5466;55.898;14.094;2024-02-23T04:38:34;7.20;99.90
10826;DHT22;5466;55.898;14.094;2024-02-23T04:40:35;7.20;99.90
10826;DHT22;5466;55.898;14.094;2024-02-23T04:42:35;7.10;99.90
10826;DHT22;5466;55.898;14.094;2024-02-23T04:44:36;7.10;99.90
10826;DHT22;5466;55.898;14.094;2024-02-23T04:46:37;7.10;99.90
10826;DHT22;5466;55.898;14.094;2024-02-23T04:48:37;7.00;99.90
10826;DHT22;5466;55.898;14.094;2024-02-23T04:50:38;6.90;99.90
10826;DHT22;5466;55.898;14.094;2024-02-23T04:52:39;6.80;99.90
10826;DHT22;5466;55.898;14.094;2024-02-23T04:54:39;6.70;99.90
10826;DHT22;5466;55.898;14.094;2024-02-23T04:56:40;6.70;99.90
10826;DHT22;5466;55.898;14.094;2024-02-23T04:58:40;6.60;99.90
10826;DHT22;5466;55.898;14.094;2024-02-23T05:00:44;6.50;99.90
10826;DHT22;5466;55.898;14.094;2024-02-23T05:02:45;6.50;99.90
10826;DHT22;5466;55.898;14.094;2024-02-23T05:04:46;6.40;99.90
10826;DHT22;5466;55.898;14.094;2024-02-23T05:06:47;6.40;99.90
10826;DHT22;5466;55.898;14.094;2024-02-23T05:08:48;6.40;99.90
10826;DHT22;5466;55.898;14.094;2024-02-23T05:10:49;6.40;99.90
10826;DHT22;5466;55.898;14.094;2024-02-23T05:12:51;6.30;99.90
10826;DHT22;5466;55.898;14.094;2024-02-23T05:14:52;6.20;99.90
10826;DHT22;5466;55.898;14.094;2024-02-23T05:16:52;6.20;99.90
10826;DHT22;5466;55.898;14.094;2024-02-23T05:18:53;6.20;99.90
10826;DHT22;5466;55.898;14.094;2024-02-23T05:20:54;6.20;99.90
10826;DHT22;5466;55.898;14.094;2024-02-23T05:22:54;6.30;99.90
10826;DHT22;5466;55.898;14.094;2024-02-23T05:24:55;6.30;99.90
10826;DHT22;5466;55.898;14.094;2024-02-23T05:26:55;6.30;99.90
10826;DHT22;5466;55.898;14.094;2024-02-23T05:28:58;6.30;99.90
10826;DHT22;5466;55.898;14.094;2024-02-23T05:30:58;6.40;99.90
10826;DHT22;5466;55.898;14.094;2024-02-23T05:32:59;6.30;99.90
10826;DHT22;5466;55.898;14.094;2024-02-23T05:35:03;6.30;99.90
10826;DHT22;5466;55.898;14.094;2024-02-23T05:37:04;6.30;99.90
10826;DHT22;5466;55.898;14.094;2024-02-23T05:39:05;6.30;99.90
10826;DHT22;5466;55.898;14.094;2024-02-23T05:41:12;6.20;99.90
10826;DHT22;5466;55.898;14.094;2024-02-23T05:43:13;6.30;99.90
10826;DHT22;5466;55.898;14.094;2024-02-23T05:45:13;6.30;99.90
10826;DHT22;5466;55.898;14.094;2024-02-23T05:47:14;6.30;99.90
10826;DHT22;5466;55.898;14.094;2024-02-23T05:49:14;6.40;99.90
10826;DHT22;5466;55.898;14.094;2024-02-23T05:51:15;6.30;99.90
10826;DHT22;5466;55.898;14.094;2024-02-23T05:53:16;6.30;99.90
10826;DHT22;5466;55.898;14.094;2024-02-23T05:55:16;6.30;99.90
10826;DHT22;5466;55.898;14.094;2024-02-23T05:57:17;6.30;99.90
10826;DHT22;5466;55.898;14.094;2024-02-23T05:59:18;6.20;99.90
10826;DHT22;5466;55.898;14.094;2024-02-23T06:01:19;6.10;99.90
10826;DHT22;5466;55.898;14.094;2024-02-23T06:03:20;6.10;99.90
10826;DHT22;5466;55.898;14.094;2024-02-23T06:05:21;6.00;99.90
10826;DHT22;5466;55.898;14.094;2024-02-23T06:07:21;6.00;99.90
10826;DHT22;5466;55.898;14.094;2024-02-23T06:09:29;5.90;99.90
10826;DHT22;5466;55.898;14.094;2024-02-23T06:11:30;5.90;99.90
10826;DHT22;5466;55.898;14.094;2024-02-23T06:13:31;5.90;99.90
10826;DHT22;5466;55.898;14.094;2024-02-23T06:15:31;5.80;99.90
10826;DHT22;5466;55.898;14.094;2024-02-23T06:17:32;5.80;99.90
10826;DHT22;5466;55.898;14.094;2024-02-23T06:19:32;5.80;99.90
10826;DHT22;5466;55.898;14.094;2024-02-23T06:21:33;5.70;99.90
10826;DHT22;5466;55.898;14.094;2024-02-23T06:23:34;5.70;99.90
10826;DHT22;5466;55.898;14.094;2024-02-23T06:25:34;5.70;99.90
10826;DHT22;5466;55.898;14.094;2024-02-23T06:27:36;5.70;99.90
10826;DHT22;5466;55.898;14.094;2024-02-23T06:29:36;5.70;99.90
10826;DHT22;5466;55.898;14.094;2024-02-23T06:31:37;5.70;99.90
10826;DHT22;5466;55.898;14.094;2024-02-23T06:33:38;5.70;99.90
10826;DHT22;5466;55.898;14.094;2024-02-23T06:35:40;5.70;99.90
10826;DHT22;5466;55.898;14.094;2024-02-23T06:37:41;5.70;99.90
10826;DHT22;5466;55.898;14.094;2024-02-23T06:39:42;5.70;99.90
10826;DHT22;5466;55.898;14.094;2024-02-23T06:41:42;5.70;99.90
10826;DHT22;5466;55.898;14.094;2024-02-23T06:43:43;5.70;99.90
10826;DHT22;5466;55.898;14.094;2024-02-23T06:45:44;5.70;99.90
10826;DHT22;5466;55.898;14.094;2024-02-23T06:47:45;5.70;99.90
10826;DHT22;5466;55.898;14.094;2024-02-23T06:49:46;5.70;99.90
10826;DHT22;5466;55.898;14.094;2024-02-23T06:51:46;5.70;99.90
10826;DHT22;5466;55.898;14.094;2024-02-23T06:53:47;5.70;99.90
10826;DHT22;5466;55.898;14.094;2024-02-23T06:55:48;5.80;99.90
10826;DHT22;5466;55.898;14.094;2024-02-23T06:57:48;5.80;99.90
10826;DHT22;5466;55.898;14.094;2024-02-23T06:59:49;5.70;99.90
10826;DHT22;5466;55.898;14.094;2024-02-23T07:01:50;5.70;99.90
10826;DHT22;5466;55.898;14.094;2024-02-23T07:03:51;5.80;99.90
10826;DHT22;5466;55.898;14.094;2024-02-23T07:05:52;5.90;99.90
10826;DHT22;5466;55.898;14.094;2024-02-23T07:07:53;5.90;99.90
10826;DHT22;5466;55.898;14.094;2024-02-23T07:09:53;5.90;99.90
10826;DHT22;5466;55.898;14.094;2024-02-23T07:11:56;6.00;99.90
10826;DHT22;5466;55.898;14.094;2024-02-23T07:13:56;6.00;99.90
10826;DHT22;5466;55.898;14.094;2024-02-23T07:15:57;6.00;99.90
10826;DHT22;5466;55.898;14.094;2024-02-23T07:17:59;6.00;99.90
10826;DHT22;5466;55.898;14.094;2024-02-23T07:19:59;6.10;99.90
10826;DHT22;5466;55.898;14.094;2024-02-23T07:22:05;6.10;99.90
10826;DHT22;5466;55.898;14.094;2024-02-23T07:24:06;6.20;99.90
10826;DHT22;5466;55.898;14.094;2024-02-23T07:26:07;6.20;99.90
10826;DHT22;5466;55.898;14.094;2024-02-23T07:28:08;6.20;99.90
10826;DHT22;5466;55.898;14.094;2024-02-23T07:30:09;6.20;99.90
10826;DHT22;5466;55.898;14.094;2024-02-23T07:32:09;6.20;99.90
10826;DHT22;5466;55.898;14.094;2024-02-23T07:34:10;6.20;99.90
10826;DHT22;5466;55.898;14.094;2024-02-23T07:36:15;6.20;99.90
10826;DHT22;5466;55.898;14.094;2024-02-23T07:38:16;6.20;99.90
10826;DHT22;5466;55.898;14.094;2024-02-23T07:40:18;6.20;99.90
10826;DHT22;5466;55.898;14.094;2024-02-23T07:42:19;6.30;99.90
10826;DHT22;5466;55.898;14.094;2024-02-23T07:44:19;6.30;99.90
10826;DHT22;5466;55.898;14.094;2024-02-23T07:46:20;6.30;99.90
10826;DHT22;5466;55.898;14.094;2024-02-23T07:48:23;6.30;99.90
10826;DHT22;5466;55.898;14.094;2024-02-23T07:50:23;6.40;99.90
10826;DHT22;5466;55.898;14.094;2024-02-23T07:52:25;6.50;99.90
10826;DHT22;5466;55.898;14.094;2024-02-23T07:54:26;6.50;99.90
10826;DHT22;5466;55.898;14.094;2024-02-23T07:56:26;6.40;99.90
10826;DHT22;5466;55.898;14.094;2024-02-23T07:58:27;6.50;99.90
10826;DHT22;5466;55.898;14.094;2024-02-23T08:00:28;6.40;99.90
10826;DHT22;5466;55.898;14.094;2024-02-23T08:02:29;6.50;99.90
10826;DHT22;5466;55.898;14.094;2024-02-23T08:04:29;6.50;99.90
10826;DHT22;5466;55.898;14.094;2024-02-23T08:06:30;6.50;99.90
10826;DHT22;5466;55.898;14.094;2024-02-23T08:08:31;6.50;99.90
10826;DHT22;5466;55.898;14.094;2024-02-23T08:10:35;6.50;99.90
10826;DHT22;5466;55.898;14.094;2024-02-23T08:12:35;6.50;99.90
10826;DHT22;5466;55.898;14.094;2024-02-23T08:14:36;6.60;99.90
10826;DHT22;5466;55.898;14.094;2024-02-23T08:16:37;6.60;99.90
10826;DHT22;5466;55.898;14.094;2024-02-23T08:18:38;6.50;99.90
10826;DHT22;5466;55.898;14.094;2024-02-23T08:20:38;6.50;99.90
10826;DHT22;5466;55.898;14.094;2024-02-23T08:22:39;6.50;99.90
10826;DHT22;5466;55.898;14.094;2024-02-23T08:24:40;6.60;99.90
10826;DHT22;5466;55.898;14.094;2024-02-23T08:26:40;6.70;99.90
10826;DHT22;5466;55.898;14.094;2024-02-23T08:28:42;6.70;99.90
10826;DHT22;5466;55.898;14.094;2024-02-23T08:30:43;6.80;99.90
10826;DHT22;5466;55.898;14.094;2024-02-23T08:32:43;6.80;99.90
10826;DHT22;5466;55.898;14.094;2024-02-23T08:34:44;6.80;99.90
10826;DHT22;5466;55.898;14.094;2024-02-23T08:36:45;6.70;99.90
10826;DHT22;5466;55.898;14.094;2024-02-23T08:38:46;6.80;99.90
10826;DHT22;5466;55.898;14.094;2024-02-23T08:40:46;6.70;99.90
10826;DHT22;5466;55.898;14.094;2024-02-23T08:42:47;6.70;99.90
10826;DHT22;5466;55.898;14.094;2024-02-23T08:44:48;6.70;99.90
10826;DHT22;5466;55.898;14.094;2024-02-23T08:46:48;6.70;99.90
10826;DHT22;5466;55.898;14.094;2024-02-23T08:48:49;6.70;99.90
10826;DHT22;5466;55.898;14.094;2024-02-23T08:50:49;6.80;99.90
10826;DHT22;5466;55.898;14.094;2024-02-23T08:52:50;6.80;99.90
10826;DHT22;5466;55.898;14.094;2024-02-23T08:54:51;6.90;99.90
10826;DHT22;5466;55.898;14.094;2024-02-23T08:56:52;7.00;99.90
10826;DHT22;5466;55.898;14.094;2024-02-23T08:58:53;7.10;99.90
10826;DHT22;5466;55.898;14.094;2024-02-23T09:00:53;7.10;99.90
10826;DHT22;5466;55.898;14.094;2024-02-23T09:02:54;7.10;99.90
10826;DHT22;5466;55.898;14.094;2024-02-23T09:04:55;7.20;99.90
10826;DHT22;5466;55.898;14.094;2024-02-23T09:06:55;7.30;99.90
10826;DHT22;5466;55.898;14.094;2024-02-23T09:08:56;7.30;99.90
10826;DHT22;5466;55.898;14.094;2024-02-23T09:10:57;7.30;99.90
10826;DHT22;5466;55.898;14.094;2024-02-23T09:12:58;7.20;99.90
10826;DHT22;5466;55.898;14.094;2024-02-23T09:14:59;7.30;99.90
10826;DHT22;5466;55.898;14.094;2024-02-23T09:16:59;7.20;99.90
10826;DHT22;5466;55.898;14.094;2024-02-23T09:19:00;7.20;99.90
10826;DHT22;5466;55.898;14.094;2024-02-23T09:21:00;7.20;99.90
10826;DHT22;5466;55.898;14.094;2024-02-23T09:23:01;7.30;99.90
10826;DHT22;5466;55.898;14.094;2024-02-23T09:25:02;7.20;99.90
10826;DHT22;5466;55.898;14.094;2024-02-23T09:27:03;7.30;99.90
10826;DHT22;5466;55.898;14.094;2024-02-23T09:29:03;7.30;99.90
10826;DHT22;5466;55.898;14.094;2024-02-23T09:31:04;7.30;99.90
10826;DHT22;5466;55.898;14.094;2024-02-23T09:33:06;7.20;99.90
10826;DHT22;5466;55.898;14.094;2024-02-23T09:35:08;7.10;99.90
10826;DHT22;5466;55.898;14.094;2024-02-23T09:37:09;7.10;99.90
10826;DHT22;5466;55.898;14.094;2024-02-23T09:39:10;7.10;99.90
10826;DHT22;5466;55.898;14.094;2024-02-23T09:41:19;7.20;99.90
10826;DHT22;5466;55.898;14.094;2024-02-23T09:43:22;7.20;99.90
10826;DHT22;5466;55.898;14.094;2024-02-23T09:45:25;7.20;99.90
10826;DHT22;5466;55.898;14.094;2024-02-23T09:47:31;7.10;99.90
10826;DHT22;5466;55.898;14.094;2024-02-23T09:49:31;7.20;99.90
10826;DHT22;5466;55.898;14.094;2024-02-23T09:51:34;7.20;99.90
10826;DHT22;5466;55.898;14.094;2024-02-23T09:53:39;7.20;99.90
10826;DHT22;5466;55.898;14.094;2024-02-23T09:55:39;7.30;99.90
10826;DHT22;5466;55.898;14.094;2024-02-23T09:57:40;7.50;99.90
10826;DHT22;5466;55.898;14.094;2024-02-23T09:59:42;7.60;99.90
10826;DHT22;5466;55.898;14.094;2024-02-23T10:01:43;7.60;99.90
10826;DHT22;5466;55.898;14.094;2024-02-23T10:03:46;7.60;99.90
10826;DHT22;5466;55.898;14.094;2024-02-23T10:05:47;7.50;99.90
10826;DHT22;5466;55.898;14.094;2024-02-23T10:07:48;7.40;99.90
10826;DHT22;5466;55.898;14.094;2024-02-23T10:09:48;7.30;99.90
10826;DHT22;5466;55.898;14.094;2024-02-23T10:11:53;7.30;99.90
10826;DHT22;5466;55.898;14.094;2024-02-23T10:13:54;7.40;99.90
10826;DHT22;5466;55.898;14.094;2024-02-23T10:15:54;7.40;99.90
10826;DHT22;5466;55.898;14.094;2024-02-23T10:17:55;7.30;99.90
10826;DHT22;5466;55.898;14.094;2024-02-23T10:19:56;7.30;99.90
10826;DHT22;5466;55.898;14.094;2024-02-23T10:22:00;7.30;99.90
10826;DHT22;5466;55.898;14.094;2024-02-23T10:24:00;7.30;99.90
10826;DHT22;5466;55.898;14.094;2024-02-23T10:26:01;7.30;99.90
10826;DHT22;5466;55.898;14.094;2024-02-23T10:28:03;7.40;99.90
10826;DHT22;5466;55.898;14.094;2024-02-23T10:30:03;7.60;99.90
10826;DHT22;5466;55.898;14.094;2024-02-23T10:32:05;7.90;99.90
10826;DHT22;5466;55.898;14.094;2024-02-23T10:34:08;7.80;99.90
10826;DHT22;5466;55.898;14.094;2024-02-23T10:36:15;7.80;99.90
10826;DHT22;5466;55.898;14.094;2024-02-23T10:38:18;7.90;99.90
10826;DHT22;5466;55.898;14.094;2024-02-23T10:40:20;8.00;99.90
10826;DHT22;5466;55.898;14.094;2024-02-23T10:42:23;8.00;99.90
10826;DHT22;5466;55.898;14.094;2024-02-23T10:44:24;7.80;99.90
10826;DHT22;5466;55.898;14.094;2024-02-23T10:46:27;7.70;99.90
10826;DHT22;5466;55.898;14.094;2024-02-23T10:48:29;7.60;99.90
10826;DHT22;5466;55.898;14.094;2024-02-23T10:50:29;7.60;99.90
10826;DHT22;5466;55.898;14.094;2024-02-23T10:52:33;7.50;99.90
10826;DHT22;5466;55.898;14.094;2024-02-23T10:54:35;7.40;99.90
10826;DHT22;5466;55.898;14.094;2024-02-23T10:56:36;7.30;99.90
10826;DHT22;5466;55.898;14.094;2024-02-23T10:58:37;7.20;99.90
10826;DHT22;5466;55.898;14.094;2024-02-23T11:00:38;7.10;99.90
10826;DHT22;5466;55.898;14.094;2024-02-23T11:02:46;7.10;99.90
10826;DHT22;5466;55.898;14.094;2024-02-23T11:04:50;7.30;99.90
10826;DHT22;5466;55.898;14.094;2024-02-23T11:06:51;7.60;99.90
10826;DHT22;5466;55.898;14.094;2024-02-23T11:08:52;7.80;99.90
10826;DHT22;5466;55.898;14.094;2024-02-23T11:10:53;7.80;99.90
10826;DHT22;5466;55.898;14.094;2024-02-23T11:13:00;7.90;99.90
10826;DHT22;5466;55.898;14.094;2024-02-23T11:15:01;8.10;99.90
10826;DHT22;5466;55.898;14.094;2024-02-23T11:17:04;8.40;99.90
10826;DHT22;5466;55.898;14.094;2024-02-23T11:19:06;8.70;99.90
10826;DHT22;5466;55.898;14.094;2024-02-23T11:21:12;8.60;99.90
10826;DHT22;5466;55.898;14.094;2024-02-23T11:23:15;8.60;99.90
10826;DHT22;5466;55.898;14.094;2024-02-23T11:25:17;8.60;99.90
10826;DHT22;5466;55.898;14.094;2024-02-23T11:27:18;8.50;99.90
10826;DHT22;5466;55.898;14.094;2024-02-23T11:29:19;8.40;99.90
10826;DHT22;5466;55.898;14.094;2024-02-23T11:31:24;8.40;99.90
10826;DHT22;5466;55.898;14.094;2024-02-23T11:34:10;8.50;99.90
10826;DHT22;5466;55.898;14.094;2024-02-23T11:35:51;8.60;99.90
10826;DHT22;5466;55.898;14.094;2024-02-23T11:37:56;8.30;99.90
10826;DHT22;5466;55.898;14.094;2024-02-23T11:40:01;8.20;99.90
10826;DHT22;5466;55.898;14.094;2024-02-23T11:42:05;8.30;99.90
10826;DHT22;5466;55.898;14.094;2024-02-23T11:44:07;8.30;99.90
10826;DHT22;5466;55.898;14.094;2024-02-23T11:46:08;8.50;99.90
10826;DHT22;5466;55.898;14.094;2024-02-23T11:48:08;8.40;99.90
10826;DHT22;5466;55.898;14.094;2024-02-23T11:50:10;8.30;99.90
10826;DHT22;5466;55.898;14.094;2024-02-23T11:52:11;8.40;99.90
10826;DHT22;5466;55.898;14.094;2024-02-23T11:54:12;8.30;99.90
10826;DHT22;5466;55.898;14.094;2024-02-23T11:56:12;8.30;99.90
10826;DHT22;5466;55.898;14.094;2024-02-23T11:58:13;8.40;99.90
10826;DHT22;5466;55.898;14.094;2024-02-23T12:00:15;8.40;99.90
10826;DHT22;5466;55.898;14.094;2024-02-23T12:02:16;8.30;99.90
10826;DHT22;5466;55.898;14.094;2024-02-23T12:04:17;8.20;99.90
10826;DHT22;5466;55.898;14.094;2024-02-23T12:06:17;8.10;99.90
10826;DHT22;5466;55.898;14.094;2024-02-23T12:08:18;8.00;99.90
10826;DHT22;5466;55.898;14.094;2024-02-23T12:10:19;7.90;99.90
10826;DHT22;5466;55.898;14.094;2024-02-23T12:12:20;7.70;99.90
10826;DHT22;5466;55.898;14.094;2024-02-23T12:14:20;7.90;99.90
10826;DHT22;5466;55.898;14.094;2024-02-23T12:16:21;7.90;99.90
10826;DHT22;5466;55.898;14.094;2024-02-23T12:18:23;7.90;99.90
10826;DHT22;5466;55.898;14.094;2024-02-23T12:20:26;8.00;99.90
10826;DHT22;5466;55.898;14.094;2024-02-23T12:22:27;7.90;99.90
10826;DHT22;5466;55.898;14.094;2024-02-23T12:24:29;7.90;99.90
10826;DHT22;5466;55.898;14.094;2024-02-23T12:26:30;7.80;99.90
10826;DHT22;5466;55.898;14.094;2024-02-23T12:28:31;7.80;99.90
10826;DHT22;5466;55.898;14.094;2024-02-23T12:30:32;7.80;99.90
10826;DHT22;5466;55.898;14.094;2024-02-23T12:32:33;7.70;99.90
10826;DHT22;5466;55.898;14.094;2024-02-23T12:34:34;7.60;99.90
10826;DHT22;5466;55.898;14.094;2024-02-23T12:36:36;7.60;99.90
10826;DHT22;5466;55.898;14.094;2024-02-23T12:38:37;7.50;99.90
10826;DHT22;5466;55.898;14.094;2024-02-23T12:40:38;7.50;99.90
10826;DHT22;5466;55.898;14.094;2024-02-23T12:42:38;7.50;99.90
10826;DHT22;5466;55.898;14.094;2024-02-23T12:44:39;7.80;99.90
10826;DHT22;5466;55.898;14.094;2024-02-23T12:46:40;8.00;99.90
10826;DHT22;5466;55.898;14.094;2024-02-23T12:48:41;8.00;99.90
10826;DHT22;5466;55.898;14.094;2024-02-23T12:50:43;7.90;99.90
10826;DHT22;5466;55.898;14.094;2024-02-23T12:52:45;7.70;99.90
10826;DHT22;5466;55.898;14.094;2024-02-23T12:54:47;7.70;99.90
10826;DHT22;5466;55.898;14.094;2024-02-23T12:56:47;7.80;99.90